sensor_id;sensor_type;location;lat;lon;timestamp;temperature;humidity
22633;DHT22;11483;55.828;37.488;2023-04-24T00:00:55;14.70;58.30
22633;DHT22;11483;55.828;37.488;2023-04-24T00:03:27;14.70;58.40
22633;DHT22;11483;55.828;37.488;2023-04-24T00:05:54;14.70;58.50
22633;DHT22;11483;55.828;37.488;2023-04-24T00:08:20;14.60;58.60
22633;DHT22;11483;55.828;37.488;2023-04-24T00:10:46;14.60;58.80
22633;DHT22;11483;55.828;37.488;2023-04-24T00:13:12;14.50;59.50
22633;DHT22;11483;55.828;37.488;2023-04-24T00:15:38;14.50;58.90
22633;DHT22;11483;55.828;37.488;2023-04-24T00:18:04;14.40;59.00
22633;DHT22;11483;55.828;37.488;2023-04-24T00:20:29;14.40;59.10
22633;DHT22;11483;55.828;37.488;2023-04-24T00:22:58;14.40;59.10
22633;DHT22;11483;55.828;37.488;2023-04-24T00:25:23;14.40;59.30
22633;DHT22;11483;55.828;37.488;2023-04-24T00:27:49;14.40;59.30
22633;DHT22;11483;55.828;37.488;2023-04-24T00:30:15;14.30;59.40
22633;DHT22;11483;55.828;37.488;2023-04-24T00:32:41;14.30;59.30
22633;DHT22;11483;55.828;37.488;2023-04-24T00:35:07;14.20;59.40
22633;DHT22;11483;55.828;37.488;2023-04-24T00:37:33;14.20;59.40
22633;DHT22;11483;55.828;37.488;2023-04-24T00:39:59;14.20;59.40
22633;DHT22;11483;55.828;37.488;2023-04-24T00:42:25;14.20;59.40
22633;DHT22;11483;55.828;37.488;2023-04-24T00:44:51;14.20;59.40
22633;DHT22;11483;55.828;37.488;2023-04-24T00:47:19;14.20;59.60
22633;DHT22;11483;55.828;37.488;2023-04-24T00:49:45;14.20;59.40
22633;DHT22;11483;55.828;37.488;2023-04-24T00:52:11;14.20;59.60
22633;DHT22;11483;55.828;37.488;2023-04-24T00:54:38;14.10;59.60
22633;DHT22;11483;55.828;37.488;2023-04-24T00:57:04;14.10;59.80
22633;DHT22;11483;55.828;37.488;2023-04-24T00:59:30;14.00;60.00
22633;DHT22;11483;55.828;37.488;2023-04-24T01:01:57;14.00;60.00
22633;DHT22;11483;55.828;37.488;2023-04-24T01:04:24;14.00;60.20
22633;DHT22;11483;55.828;37.488;2023-04-24T01:06:52;14.00;60.20
22633;DHT22;11483;55.828;37.488;2023-04-24T01:09:18;14.00;60.10
22633;DHT22;11483;55.828;37.488;2023-04-24T01:11:44;14.00;60.20
22633;DHT22;11483;55.828;37.488;2023-04-24T01:14:10;14.00;60.40
22633;DHT22;11483;55.828;37.488;2023-04-24T01:16:36;14.00;60.50
22633;DHT22;11483;55.828;37.488;2023-04-24T01:19:05;13.90;60.70
22633;DHT22;11483;55.828;37.488;2023-04-24T01:21:34;13.90;60.70
22633;DHT22;11483;55.828;37.488;2023-04-24T01:24:03;13.90;60.90
22633;DHT22;11483;55.828;37.488;2023-04-24T01:26:29;13.90;60.90
22633;DHT22;11483;55.828;37.488;2023-04-24T01:28:55;13.90;61.00
22633;DHT22;11483;55.828;37.488;2023-04-24T01:31:21;13.90;61.10
22633;DHT22;11483;55.828;37.488;2023-04-24T01:33:47;13.80;61.10
22633;DHT22;11483;55.828;37.488;2023-04-24T01:36:13;13.80;61.30
22633;DHT22;11483;55.828;37.488;2023-04-24T01:38:40;13.80;61.40
22633;DHT22;11483;55.828;37.488;2023-04-24T01:41:05;13.80;61.40
22633;DHT22;11483;55.828;37.488;2023-04-24T01:43:31;13.80;61.60
22633;DHT22;11483;55.828;37.488;2023-04-24T01:45:58;13.80;61.50
22633;DHT22;11483;55.828;37.488;2023-04-24T01:48:24;13.80;61.60
22633;DHT22;11483;55.828;37.488;2023-04-24T01:50:49;13.70;61.50
22633;DHT22;11483;55.828;37.488;2023-04-24T01:53:15;13.80;61.70
22633;DHT22;11483;55.828;37.488;2023-04-24T01:55:41;13.70;61.40
22633;DHT22;11483;55.828;37.488;2023-04-24T01:58:07;13.70;61.70
22633;DHT22;11483;55.828;37.488;2023-04-24T02:00:33;13.70;61.60
22633;DHT22;11483;55.828;37.488;2023-04-24T02:02:59;13.70;61.30
22633;DHT22;11483;55.828;37.488;2023-04-24T02:05:27;13.80;61.50
22633;DHT22;11483;55.828;37.488;2023-04-24T02:07:53;13.80;61.30
22633;DHT22;11483;55.828;37.488;2023-04-24T02:10:19;13.80;61.10
22633;DHT22;11483;55.828;37.488;2023-04-24T02:12:45;13.80;61.10
22633;DHT22;11483;55.828;37.488;2023-04-24T02:15:11;13.80;61.40
22633;DHT22;11483;55.828;37.488;2023-04-24T02:17:38;13.70;61.20
22633;DHT22;11483;55.828;37.488;2023-04-24T02:20:06;13.70;61.30
22633;DHT22;11483;55.828;37.488;2023-04-24T02:22:32;13.80;61.10
22633;DHT22;11483;55.828;37.488;2023-04-24T02:24:58;13.80;60.80
22633;DHT22;11483;55.828;37.488;2023-04-24T02:27:24;13.90;61.00
22633;DHT22;11483;55.828;37.488;2023-04-24T02:29:50;13.90;60.90
22633;DHT22;11483;55.828;37.488;2023-04-24T02:32:15;13.90;60.90
22633;DHT22;11483;55.828;37.488;2023-04-24T02:34:41;13.90;61.00
22633;DHT22;11483;55.828;37.488;2023-04-24T02:37:07;13.90;61.00
22633;DHT22;11483;55.828;37.488;2023-04-24T02:39:33;14.00;60.90
22633;DHT22;11483;55.828;37.488;2023-04-24T02:41:58;14.00;61.00
22633;DHT22;11483;55.828;37.488;2023-04-24T02:44:25;14.00;61.00
22633;DHT22;11483;55.828;37.488;2023-04-24T02:46:51;14.00;61.00
22633;DHT22;11483;55.828;37.488;2023-04-24T02:49:17;14.00;60.90
22633;DHT22;11483;55.828;37.488;2023-04-24T02:51:42;14.00;61.00
22633;DHT22;11483;55.828;37.488;2023-04-24T02:54:09;14.00;60.60
22633;DHT22;11483;55.828;37.488;2023-04-24T02:56:37;14.10;60.50
22633;DHT22;11483;55.828;37.488;2023-04-24T02:59:03;14.20;60.20
22633;DHT22;11483;55.828;37.488;2023-04-24T03:01:29;14.20;60.00
22633;DHT22;11483;55.828;37.488;2023-04-24T03:03:55;14.20;60.60
22633;DHT22;11483;55.828;37.488;2023-04-24T03:06:21;14.30;59.90
22633;DHT22;11483;55.828;37.488;2023-04-24T03:08:47;14.30;59.90
22633;DHT22;11483;55.828;37.488;2023-04-24T03:11:13;14.30;60.00
22633;DHT22;11483;55.828;37.488;2023-04-24T03:13:38;14.30;59.90
22633;DHT22;11483;55.828;37.488;2023-04-24T03:16:05;14.40;60.10
22633;DHT22;11483;55.828;37.488;2023-04-24T03:18:31;14.30;60.10
22633;DHT22;11483;55.828;37.488;2023-04-24T03:20:57;14.30;60.80
22633;DHT22;11483;55.828;37.488;2023-04-24T03:23:23;14.30;60.20
22633;DHT22;11483;55.828;37.488;2023-04-24T03:25:49;14.30;60.20
22633;DHT22;11483;55.828;37.488;2023-04-24T03:28:15;14.30;60.20
22633;DHT22;11483;55.828;37.488;2023-04-24T03:30:40;14.30;60.10
22633;DHT22;11483;55.828;37.488;2023-04-24T03:33:06;14.30;60.00
22633;DHT22;11483;55.828;37.488;2023-04-24T03:35:32;14.30;60.10
22633;DHT22;11483;55.828;37.488;2023-04-24T03:37:58;14.30;60.00
22633;DHT22;11483;55.828;37.488;2023-04-24T03:40:24;14.30;60.10
22633;DHT22;11483;55.828;37.488;2023-04-24T03:42:50;14.30;60.40
22633;DHT22;11483;55.828;37.488;2023-04-24T03:45:15;14.30;60.30
22633;DHT22;11483;55.828;37.488;2023-04-24T03:47:41;14.40;60.50
22633;DHT22;11483;55.828;37.488;2023-04-24T03:50:07;14.30;60.60
22633;DHT22;11483;55.828;37.488;2023-04-24T03:52:33;14.30;61.30
22633;DHT22;11483;55.828;37.488;2023-04-24T03:54:59;14.30;60.60
22633;DHT22;11483;55.828;37.488;2023-04-24T03:57:25;14.40;60.70
22633;DHT22;11483;55.828;37.488;2023-04-24T03:59:51;14.30;60.80
22633;DHT22;11483;55.828;37.488;2023-04-24T04:02:18;14.30;61.10
22633;DHT22;11483;55.828;37.488;2023-04-24T04:04:44;14.30;61.20
22633;DHT22;11483;55.828;37.488;2023-04-24T04:07:10;14.20;61.30
22633;DHT22;11483;55.828;37.488;2023-04-24T04:09:36;14.30;61.30
22633;DHT22;11483;55.828;37.488;2023-04-24T04:12:02;14.20;61.30
22633;DHT22;11483;55.828;37.488;2023-04-24T04:14:28;14.30;61.60
22633;DHT22;11483;55.828;37.488;2023-04-24T04:16:54;14.20;61.70
22633;DHT22;11483;55.828;37.488;2023-04-24T04:19:20;14.20;61.80
22633;DHT22;11483;55.828;37.488;2023-04-24T04:21:46;14.20;62.00
22633;DHT22;11483;55.828;37.488;2023-04-24T04:24:16;14.20;62.00
22633;DHT22;11483;55.828;37.488;2023-04-24T04:26:42;14.30;62.30
22633;DHT22;11483;55.828;37.488;2023-04-24T04:29:13;14.30;62.20
22633;DHT22;11483;55.828;37.488;2023-04-24T04:31:39;14.30;61.80
22633;DHT22;11483;55.828;37.488;2023-04-24T04:34:05;14.40;61.80
22633;DHT22;11483;55.828;37.488;2023-04-24T04:36:31;14.40;61.80
22633;DHT22;11483;55.828;37.488;2023-04-24T04:38:57;14.40;61.90
22633;DHT22;11483;55.828;37.488;2023-04-24T04:41:24;14.40;62.10
22633;DHT22;11483;55.828;37.488;2023-04-24T04:43:50;14.50;61.90
22633;DHT22;11483;55.828;37.488;2023-04-24T04:46:18;14.50;61.90
22633;DHT22;11483;55.828;37.488;2023-04-24T04:48:44;14.60;62.10
22633;DHT22;11483;55.828;37.488;2023-04-24T04:51:10;14.70;62.40
22633;DHT22;11483;55.828;37.488;2023-04-24T04:53:35;14.80;62.30
22633;DHT22;11483;55.828;37.488;2023-04-24T04:56:01;14.80;61.90
22633;DHT22;11483;55.828;37.488;2023-04-24T04:58:27;14.90;61.90
22633;DHT22;11483;55.828;37.488;2023-04-24T05:00:53;15.10;61.80
22633;DHT22;11483;55.828;37.488;2023-04-24T05:03:19;15.10;61.00
22633;DHT22;11483;55.828;37.488;2023-04-24T05:05:45;15.20;61.00
22633;DHT22;11483;55.828;37.488;2023-04-24T05:08:11;15.20;60.60
22633;DHT22;11483;55.828;37.488;2023-04-24T05:10:37;15.30;60.50
22633;DHT22;11483;55.828;37.488;2023-04-24T05:13:03;15.40;60.70
22633;DHT22;11483;55.828;37.488;2023-04-24T05:15:30;15.40;60.40
22633;DHT22;11483;55.828;37.488;2023-04-24T05:17:56;15.50;60.40
22633;DHT22;11483;55.828;37.488;2023-04-24T05:20:22;15.60;60.20
22633;DHT22;11483;55.828;37.488;2023-04-24T05:22:48;15.70;60.10
22633;DHT22;11483;55.828;37.488;2023-04-24T05:25:14;15.70;59.90
22633;DHT22;11483;55.828;37.488;2023-04-24T05:27:40;15.90;59.80
22633;DHT22;11483;55.828;37.488;2023-04-24T05:30:07;16.00;59.80
22633;DHT22;11483;55.828;37.488;2023-04-24T05:32:33;16.00;59.20
22633;DHT22;11483;55.828;37.488;2023-04-24T05:34:59;16.10;59.20
22633;DHT22;11483;55.828;37.488;2023-04-24T05:37:25;16.10;59.30
22633;DHT22;11483;55.828;37.488;2023-04-24T05:39:51;16.20;59.30
22633;DHT22;11483;55.828;37.488;2023-04-24T05:42:17;16.30;59.40
22633;DHT22;11483;55.828;37.488;2023-04-24T05:44:43;16.40;59.40
22633;DHT22;11483;55.828;37.488;2023-04-24T05:47:09;16.50;58.80
22633;DHT22;11483;55.828;37.488;2023-04-24T05:49:35;16.60;58.80
22633;DHT22;11483;55.828;37.488;2023-04-24T05:52:00;16.70;59.10
22633;DHT22;11483;55.828;37.488;2023-04-24T05:54:26;16.80;58.50
22633;DHT22;11483;55.828;37.488;2023-04-24T05:56:52;16.90;58.70
22633;DHT22;11483;55.828;37.488;2023-04-24T05:59:19;16.90;58.20
22633;DHT22;11483;55.828;37.488;2023-04-24T06:01:45;17.00;58.40
22633;DHT22;11483;55.828;37.488;2023-04-24T06:04:12;17.20;58.10
22633;DHT22;11483;55.828;37.488;2023-04-24T06:06:39;17.20;58.10
22633;DHT22;11483;55.828;37.488;2023-04-24T06:09:05;17.20;57.90
22633;DHT22;11483;55.828;37.488;2023-04-24T06:11:31;17.30;57.60
22633;DHT22;11483;55.828;37.488;2023-04-24T06:13:57;17.30;57.40
22633;DHT22;11483;55.828;37.488;2023-04-24T06:16:23;17.30;57.10
22633;DHT22;11483;55.828;37.488;2023-04-24T06:18:48;17.30;57.20
22633;DHT22;11483;55.828;37.488;2023-04-24T06:21:16;17.40;57.20
22633;DHT22;11483;55.828;37.488;2023-04-24T06:23:42;17.50;56.90
22633;DHT22;11483;55.828;37.488;2023-04-24T06:26:08;17.50;56.70
22633;DHT22;11483;55.828;37.488;2023-04-24T06:28:35;17.60;56.40
22633;DHT22;11483;55.828;37.488;2023-04-24T06:31:01;17.60;56.30
22633;DHT22;11483;55.828;37.488;2023-04-24T06:33:27;17.70;56.30
22633;DHT22;11483;55.828;37.488;2023-04-24T06:35:52;17.70;56.30
22633;DHT22;11483;55.828;37.488;2023-04-24T06:38:18;17.80;56.20
22633;DHT22;11483;55.828;37.488;2023-04-24T06:40:44;17.90;56.30
22633;DHT22;11483;55.828;37.488;2023-04-24T06:43:10;17.90;56.20
22633;DHT22;11483;55.828;37.488;2023-04-24T06:45:36;17.90;55.90
22633;DHT22;11483;55.828;37.488;2023-04-24T06:48:02;18.10;56.30
22633;DHT22;11483;55.828;37.488;2023-04-24T06:50:28;18.20;55.90
22633;DHT22;11483;55.828;37.488;2023-04-24T06:52:54;18.30;55.30
22633;DHT22;11483;55.828;37.488;2023-04-24T06:55:19;18.40;55.40
22633;DHT22;11483;55.828;37.488;2023-04-24T06:57:45;18.50;55.40
22633;DHT22;11483;55.828;37.488;2023-04-24T07:00:12;18.70;55.00
22633;DHT22;11483;55.828;37.488;2023-04-24T07:02:38;18.80;54.60
22633;DHT22;11483;55.828;37.488;2023-04-24T07:05:05;18.90;54.70
22633;DHT22;11483;55.828;37.488;2023-04-24T07:07:30;19.00;53.80
22633;DHT22;11483;55.828;37.488;2023-04-24T07:09:57;19.10;53.60
22633;DHT22;11483;55.828;37.488;2023-04-24T07:12:23;19.30;53.30
22633;DHT22;11483;55.828;37.488;2023-04-24T07:14:50;19.30;53.30
22633;DHT22;11483;55.828;37.488;2023-04-24T07:17:15;19.50;53.20
22633;DHT22;11483;55.828;37.488;2023-04-24T07:19:41;19.70;53.30
22633;DHT22;11483;55.828;37.488;2023-04-24T07:22:07;20.00;51.80
22633;DHT22;11483;55.828;37.488;2023-04-24T07:24:33;20.00;51.40
22633;DHT22;11483;55.828;37.488;2023-04-24T07:27:00;20.10;50.80
22633;DHT22;11483;55.828;37.488;2023-04-24T07:29:28;20.00;51.10
22633;DHT22;11483;55.828;37.488;2023-04-24T07:31:54;20.00;51.00
22633;DHT22;11483;55.828;37.488;2023-04-24T07:34:21;20.00;51.00
22633;DHT22;11483;55.828;37.488;2023-04-24T07:36:47;20.00;50.60
22633;DHT22;11483;55.828;37.488;2023-04-24T07:39:13;20.20;50.80
22633;DHT22;11483;55.828;37.488;2023-04-24T07:41:39;20.50;50.30
22633;DHT22;11483;55.828;37.488;2023-04-24T07:44:05;20.70;49.10
22633;DHT22;11483;55.828;37.488;2023-04-24T07:46:32;20.70;47.90
22633;DHT22;11483;55.828;37.488;2023-04-24T07:48:58;20.70;48.30
22633;DHT22;11483;55.828;37.488;2023-04-24T07:51:27;20.70;47.80
22633;DHT22;11483;55.828;37.488;2023-04-24T07:53:53;20.70;49.30
22633;DHT22;11483;55.828;37.488;2023-04-24T07:56:21;20.80;48.40
22633;DHT22;11483;55.828;37.488;2023-04-24T07:58:46;21.00;47.20
22633;DHT22;11483;55.828;37.488;2023-04-24T08:01:12;21.20;47.60
22633;DHT22;11483;55.828;37.488;2023-04-24T08:03:38;21.40;47.40
22633;DHT22;11483;55.828;37.488;2023-04-24T08:06:04;21.70;47.60
22633;DHT22;11483;55.828;37.488;2023-04-24T08:08:30;21.80;46.90
22633;DHT22;11483;55.828;37.488;2023-04-24T08:10:56;21.90;46.90
22633;DHT22;11483;55.828;37.488;2023-04-24T08:13:22;22.00;45.70
22633;DHT22;11483;55.828;37.488;2023-04-24T08:15:48;21.70;45.50
22633;DHT22;11483;55.828;37.488;2023-04-24T08:18:14;21.40;46.00
22633;DHT22;11483;55.828;37.488;2023-04-24T08:20:41;21.50;46.20
22633;DHT22;11483;55.828;37.488;2023-04-24T08:23:07;21.60;46.30
22633;DHT22;11483;55.828;37.488;2023-04-24T08:25:33;21.80;46.40
22633;DHT22;11483;55.828;37.488;2023-04-24T08:28:02;22.10;45.90
22633;DHT22;11483;55.828;37.488;2023-04-24T08:30:29;22.70;45.70
22633;DHT22;11483;55.828;37.488;2023-04-24T08:32:55;23.60;44.90
22633;DHT22;11483;55.828;37.488;2023-04-24T08:35:21;24.40;44.50
22633;DHT22;11483;55.828;37.488;2023-04-24T08:37:48;26.20;42.90
22633;DHT22;11483;55.828;37.488;2023-04-24T08:40:16;27.20;41.90
22633;DHT22;11483;55.828;37.488;2023-04-24T08:42:42;28.20;41.10
22633;DHT22;11483;55.828;37.488;2023-04-24T08:45:09;29.30;40.80
22633;DHT22;11483;55.828;37.488;2023-04-24T08:47:35;29.80;38.70
22633;DHT22;11483;55.828;37.488;2023-04-24T08:50:03;30.20;39.10
22633;DHT22;11483;55.828;37.488;2023-04-24T08:52:32;30.90;38.10
22633;DHT22;11483;55.828;37.488;2023-04-24T08:54:59;31.60;37.70
22633;DHT22;11483;55.828;37.488;2023-04-24T08:57:26;32.00;37.90
22633;DHT22;11483;55.828;37.488;2023-04-24T08:59:53;32.70;36.70
22633;DHT22;11483;55.828;37.488;2023-04-24T09:02:19;32.70;36.50
22633;DHT22;11483;55.828;37.488;2023-04-24T09:04:46;32.60;36.70
22633;DHT22;11483;55.828;37.488;2023-04-24T09:07:14;33.10;35.80
22633;DHT22;11483;55.828;37.488;2023-04-24T09:09:40;31.80;36.00
22633;DHT22;11483;55.828;37.488;2023-04-24T09:12:07;30.70;36.10
22633;DHT22;11483;55.828;37.488;2023-04-24T09:14:36;29.50;37.30
22633;DHT22;11483;55.828;37.488;2023-04-24T09:17:06;29.50;37.50
22633;DHT22;11483;55.828;37.488;2023-04-24T09:19:32;30.20;37.90
22633;DHT22;11483;55.828;37.488;2023-04-24T09:21:57;30.20;37.30
22633;DHT22;11483;55.828;37.488;2023-04-24T09:24:23;30.90;37.00
22633;DHT22;11483;55.828;37.488;2023-04-24T09:26:56;32.00;36.40
22633;DHT22;11483;55.828;37.488;2023-04-24T09:29:27;33.00;36.00
22633;DHT22;11483;55.828;37.488;2023-04-24T09:31:53;34.10;35.90
22633;DHT22;11483;55.828;37.488;2023-04-24T09:34:24;34.10;34.70
22633;DHT22;11483;55.828;37.488;2023-04-24T09:36:50;34.10;34.20
22633;DHT22;11483;55.828;37.488;2023-04-24T09:39:18;33.60;34.10
22633;DHT22;11483;55.828;37.488;2023-04-24T09:41:56;32.90;34.50
22633;DHT22;11483;55.828;37.488;2023-04-24T09:44:27;32.50;34.50
22633;DHT22;11483;55.828;37.488;2023-04-24T09:46:55;32.60;34.80
22633;DHT22;11483;55.828;37.488;2023-04-24T09:49:29;32.50;34.20
22633;DHT22;11483;55.828;37.488;2023-04-24T09:52:05;31.20;34.90
22633;DHT22;11483;55.828;37.488;2023-04-24T09:54:31;31.30;36.00
22633;DHT22;11483;55.828;37.488;2023-04-24T09:56:57;32.30;35.40
22633;DHT22;11483;55.828;37.488;2023-04-24T09:59:25;33.40;35.30
22633;DHT22;11483;55.828;37.488;2023-04-24T10:01:51;33.20;33.80
22633;DHT22;11483;55.828;37.488;2023-04-24T10:04:28;33.40;33.80
22633;DHT22;11483;55.828;37.488;2023-04-24T10:06:57;33.90;33.30
22633;DHT22;11483;55.828;37.488;2023-04-24T10:09:26;32.80;33.40
22633;DHT22;11483;55.828;37.488;2023-04-24T10:11:53;32.50;34.00
22633;DHT22;11483;55.828;37.488;2023-04-24T10:14:22;32.60;33.80
22633;DHT22;11483;55.828;37.488;2023-04-24T10:16:49;32.40;34.10
22633;DHT22;11483;55.828;37.488;2023-04-24T10:19:16;33.10;34.00
22633;DHT22;11483;55.828;37.488;2023-04-24T10:21:44;32.90;33.80
22633;DHT22;11483;55.828;37.488;2023-04-24T10:24:18;32.70;33.90
22633;DHT22;11483;55.828;37.488;2023-04-24T10:26:45;32.70;34.30
22633;DHT22;11483;55.828;37.488;2023-04-24T10:29:15;33.30;34.30
22633;DHT22;11483;55.828;37.488;2023-04-24T10:31:41;32.20;33.40
22633;DHT22;11483;55.828;37.488;2023-04-24T10:34:09;31.00;34.50
22633;DHT22;11483;55.828;37.488;2023-04-24T10:36:38;30.80;35.60
22633;DHT22;11483;55.828;37.488;2023-04-24T10:39:08;30.00;35.10
22633;DHT22;11483;55.828;37.488;2023-04-24T10:41:40;29.50;35.90
22633;DHT22;11483;55.828;37.488;2023-04-24T10:44:15;30.40;36.20
22633;DHT22;11483;55.828;37.488;2023-04-24T10:46:46;31.90;35.10
22633;DHT22;11483;55.828;37.488;2023-04-24T10:49:13;33.00;34.80
22633;DHT22;11483;55.828;37.488;2023-04-24T10:51:52;33.40;33.70
22633;DHT22;11483;55.828;37.488;2023-04-24T11:00:09;33.50;33.50
22633;DHT22;11483;55.828;37.488;2023-04-24T11:02:39;33.10;32.90
22633;DHT22;11483;55.828;37.488;2023-04-24T11:05:06;31.00;33.70
22633;DHT22;11483;55.828;37.488;2023-04-24T11:08:25;29.90;34.90
22633;DHT22;11483;55.828;37.488;2023-04-24T11:10:47;30.80;34.80
22633;DHT22;11483;55.828;37.488;2023-04-24T11:13:22;32.20;34.20
22633;DHT22;11483;55.828;37.488;2023-04-24T11:21:42;34.00;32.50
22633;DHT22;11483;55.828;37.488;2023-04-24T11:24:31;33.80;32.70
22633;DHT22;11483;55.828;37.488;2023-04-24T11:29:43;32.70;33.00
22633;DHT22;11483;55.828;37.488;2023-04-24T11:35:15;31.90;33.40
22633;DHT22;11483;55.828;37.488;2023-04-24T11:37:47;31.80;33.80
22633;DHT22;11483;55.828;37.488;2023-04-24T11:40:15;31.80;33.90
22633;DHT22;11483;55.828;37.488;2023-04-24T11:42:44;31.80;34.30
22633;DHT22;11483;55.828;37.488;2023-04-24T11:45:12;32.00;33.60
22633;DHT22;11483;55.828;37.488;2023-04-24T11:47:39;30.60;33.80
22633;DHT22;11483;55.828;37.488;2023-04-24T11:50:08;29.10;34.60
22633;DHT22;11483;55.828;37.488;2023-04-24T11:52:38;28.60;35.50
22633;DHT22;11483;55.828;37.488;2023-04-24T11:55:06;28.20;35.90
22633;DHT22;11483;55.828;37.488;2023-04-24T11:57:32;29.20;36.50
22633;DHT22;11483;55.828;37.488;2023-04-24T12:00:01;30.40;35.50
22633;DHT22;11483;55.828;37.488;2023-04-24T12:02:27;32.10;34.50
22633;DHT22;11483;55.828;37.488;2023-04-24T12:04:53;33.40;33.30
22633;DHT22;11483;55.828;37.488;2023-04-24T12:07:20;32.90;32.70
22633;DHT22;11483;55.828;37.488;2023-04-24T12:09:48;32.30;33.00
22633;DHT22;11483;55.828;37.488;2023-04-24T12:12:15;31.50;33.00
22633;DHT22;11483;55.828;37.488;2023-04-24T12:14:43;31.10;33.30
22633;DHT22;11483;55.828;37.488;2023-04-24T12:17:09;30.80;33.50
22633;DHT22;11483;55.828;37.488;2023-04-24T12:19:35;30.80;33.70
22633;DHT22;11483;55.828;37.488;2023-04-24T12:22:05;31.10;33.80
22633;DHT22;11483;55.828;37.488;2023-04-24T12:24:32;31.30;33.80
22633;DHT22;11483;55.828;37.488;2023-04-24T12:26:58;31.50;33.80
22633;DHT22;11483;55.828;37.488;2023-04-24T12:29:24;31.50;33.60
22633;DHT22;11483;55.828;37.488;2023-04-24T12:31:51;31.80;33.50
22633;DHT22;11483;55.828;37.488;2023-04-24T12:34:22;31.70;32.80
22633;DHT22;11483;55.828;37.488;2023-04-24T12:36:48;31.70;33.10
22633;DHT22;11483;55.828;37.488;2023-04-24T12:39:15;31.20;33.20
22633;DHT22;11483;55.828;37.488;2023-04-24T12:41:51;31.30;33.50
22633;DHT22;11483;55.828;37.488;2023-04-24T12:44:19;31.90;33.70
22633;DHT22;11483;55.828;37.488;2023-04-24T12:46:45;31.80;33.10
22633;DHT22;11483;55.828;37.488;2023-04-24T12:49:11;31.60;33.40
22633;DHT22;11483;55.828;37.488;2023-04-24T12:51:37;32.20;33.30
22633;DHT22;11483;55.828;37.488;2023-04-24T12:54:03;32.90;33.00
22633;DHT22;11483;55.828;37.488;2023-04-24T12:56:29;33.80;32.80
22633;DHT22;11483;55.828;37.488;2023-04-24T12:58:55;34.60;32.20
22633;DHT22;11483;55.828;37.488;2023-04-24T13:01:21;34.80;32.10
22633;DHT22;11483;55.828;37.488;2023-04-24T13:03:47;35.30;31.80
22633;DHT22;11483;55.828;37.488;2023-04-24T13:06:13;35.10;31.60
22633;DHT22;11483;55.828;37.488;2023-04-24T13:08:38;34.70;31.60
22633;DHT22;11483;55.828;37.488;2023-04-24T13:11:04;34.50;31.70
22633;DHT22;11483;55.828;37.488;2023-04-24T13:13:30;34.30;31.40
22633;DHT22;11483;55.828;37.488;2023-04-24T13:15:56;33.90;31.40
22633;DHT22;11483;55.828;37.488;2023-04-24T13:18:22;33.70;31.70
22633;DHT22;11483;55.828;37.488;2023-04-24T13:20:47;33.40;31.50
22633;DHT22;11483;55.828;37.488;2023-04-24T13:23:13;33.40;31.80
22633;DHT22;11483;55.828;37.488;2023-04-24T13:25:40;33.10;31.60
22633;DHT22;11483;55.828;37.488;2023-04-24T13:28:06;32.50;32.10
22633;DHT22;11483;55.828;37.488;2023-04-24T13:30:32;32.10;32.40
22633;DHT22;11483;55.828;37.488;2023-04-24T13:32:58;31.80;32.70
22633;DHT22;11483;55.828;37.488;2023-04-24T13:35:24;32.10;32.60
22633;DHT22;11483;55.828;37.488;2023-04-24T13:37:49;32.70;32.70
22633;DHT22;11483;55.828;37.488;2023-04-24T13:40:16;32.70;32.20
22633;DHT22;11483;55.828;37.488;2023-04-24T13:42:41;32.00;32.50
22633;DHT22;11483;55.828;37.488;2023-04-24T13:45:08;31.40;33.00
22633;DHT22;11483;55.828;37.488;2023-04-24T13:47:35;30.70;33.20
22633;DHT22;11483;55.828;37.488;2023-04-24T13:50:01;30.10;33.60
22633;DHT22;11483;55.828;37.488;2023-04-24T13:52:27;29.20;33.90
22633;DHT22;11483;55.828;37.488;2023-04-24T13:54:53;28.40;34.40
22633;DHT22;11483;55.828;37.488;2023-04-24T13:57:19;27.50;35.10
22633;DHT22;11483;55.828;37.488;2023-04-24T13:59:45;26.90;35.80
22633;DHT22;11483;55.828;37.488;2023-04-24T14:02:11;26.30;36.50
22633;DHT22;11483;55.828;37.488;2023-04-24T14:04:37;25.80;36.70
22633;DHT22;11483;55.828;37.488;2023-04-24T14:07:03;25.30;37.30
22633;DHT22;11483;55.828;37.488;2023-04-24T14:09:29;24.90;37.60
22633;DHT22;11483;55.828;37.488;2023-04-24T14:11:55;24.70;38.00
22633;DHT22;11483;55.828;37.488;2023-04-24T14:14:21;25.00;38.30
22633;DHT22;11483;55.828;37.488;2023-04-24T14:16:47;25.10;38.10
22633;DHT22;11483;55.828;37.488;2023-04-24T14:19:13;25.10;38.30
22633;DHT22;11483;55.828;37.488;2023-04-24T14:21:38;25.80;38.10
22633;DHT22;11483;55.828;37.488;2023-04-24T14:24:04;26.90;37.60
22633;DHT22;11483;55.828;37.488;2023-04-24T14:26:30;27.70;36.80
22633;DHT22;11483;55.828;37.488;2023-04-24T14:28:56;28.60;36.30
22633;DHT22;11483;55.828;37.488;2023-04-24T14:31:24;29.20;35.00
22633;DHT22;11483;55.828;37.488;2023-04-24T14:33:50;29.50;34.40
22633;DHT22;11483;55.828;37.488;2023-04-24T14:36:15;29.40;34.30
22633;DHT22;11483;55.828;37.488;2023-04-24T14:38:41;28.90;34.30
22633;DHT22;11483;55.828;37.488;2023-04-24T14:41:07;28.20;34.30
22633;DHT22;11483;55.828;37.488;2023-04-24T14:43:36;27.20;35.00
22633;DHT22;11483;55.828;37.488;2023-04-24T14:46:02;26.50;35.80
22633;DHT22;11483;55.828;37.488;2023-04-24T14:48:29;25.90;36.50
22633;DHT22;11483;55.828;37.488;2023-04-24T14:50:54;25.30;37.10
22633;DHT22;11483;55.828;37.488;2023-04-24T14:53:20;24.70;37.70
22633;DHT22;11483;55.828;37.488;2023-04-24T14:55:46;24.40;38.40
22633;DHT22;11483;55.828;37.488;2023-04-24T14:58:12;24.60;38.50
22633;DHT22;11483;55.828;37.488;2023-04-24T15:00:38;24.80;38.20
22633;DHT22;11483;55.828;37.488;2023-04-24T15:03:04;25.10;38.00
22633;DHT22;11483;55.828;37.488;2023-04-24T15:05:30;25.50;37.90
22633;DHT22;11483;55.828;37.488;2023-04-24T15:07:56;25.90;37.50
22633;DHT22;11483;55.828;37.488;2023-04-24T15:10:22;25.90;37.30
22633;DHT22;11483;55.828;37.488;2023-04-24T15:12:49;26.00;37.30
22633;DHT22;11483;55.828;37.488;2023-04-24T15:15:15;26.10;37.30
22633;DHT22;11483;55.828;37.488;2023-04-24T15:17:41;26.50;36.70
22633;DHT22;11483;55.828;37.488;2023-04-24T15:20:07;26.70;36.20
22633;DHT22;11483;55.828;37.488;2023-04-24T15:22:34;26.70;36.20
22633;DHT22;11483;55.828;37.488;2023-04-24T15:25:00;26.60;36.40
22633;DHT22;11483;55.828;37.488;2023-04-24T15:27:26;26.60;36.50
22633;DHT22;11483;55.828;37.488;2023-04-24T15:29:52;26.60;36.60